<?xml version="1.0" encoding="UTF-8" standalone="no" ?>
<gpx xmlns="http://www.topografix.com/GPX/1/1" xmlns:xsi="http://www.w3.org/2001/XMLSchema-instance" xsi:schemaLocation="http://www.topografix.com/GPX/1/1 http://www.topografix.com/GPX/1/1/gpx.xsd" version="1.1" creator="VisuGPX - https://www.visugpx.com">
  <metadata>
    <name>Haute Pointe</name>
    <desc><![CDATA[grp_trc:]]></desc>
  </metadata>
  <trk>
    <name><![CDATA[Haute Pointe_1]]></name>
    <desc><![CDATA[comment ...]]></desc>
    <trkseg>
      <trkpt lat="46.16486" lon="6.55251">
        <ele>1438</ele>
        <time>2025-01-11T09:30:26Z</time>
      </trkpt>
      <trkpt lat="46.16483" lon="6.55248">
        <ele>1438</ele>
        <time>2025-01-11T09:30:30Z</time>
      </trkpt>
      <trkpt lat="46.16482" lon="6.55242">
        <ele>1437</ele>
        <time>2025-01-11T09:33:54Z</time>
      </trkpt>
      <trkpt lat="46.16486" lon="6.55239">
        <ele>1438</ele>
        <time>2025-01-11T09:34:02Z</time>
      </trkpt>
      <trkpt lat="46.165" lon="6.55239">
        <ele>1439</ele>
        <time>2025-01-11T09:35:50Z</time>
      </trkpt>
      <trkpt lat="46.16526" lon="6.55255">
        <ele>1439</ele>
        <time>2025-01-11T09:36:26Z</time>
      </trkpt>
      <trkpt lat="46.16543" lon="6.55271">
        <ele>1439</ele>
        <time>2025-01-11T09:36:50Z</time>
      </trkpt>
      <trkpt lat="46.16572" lon="6.55286">
        <ele>1440</ele>
        <time>2025-01-11T09:37:32Z</time>
      </trkpt>
      <trkpt lat="46.16598" lon="6.55302">
        <ele>1441</ele>
        <time>2025-01-11T09:38:16Z</time>
      </trkpt>
      <trkpt lat="46.16607" lon="6.55308">
        <ele>1444</ele>
        <time>2025-01-11T09:38:36Z</time>
      </trkpt>
      <trkpt lat="46.16625" lon="6.55318">
        <ele>1446</ele>
        <time>2025-01-11T09:39:12Z</time>
      </trkpt>
      <trkpt lat="46.16633" lon="6.55323">
        <ele>1447</ele>
        <time>2025-01-11T09:39:28Z</time>
      </trkpt>
      <trkpt lat="46.16651" lon="6.55331">
        <ele>1451</ele>
        <time>2025-01-11T09:40:04Z</time>
      </trkpt>
      <trkpt lat="46.16669" lon="6.55337">
        <ele>1455</ele>
        <time>2025-01-11T09:40:54Z</time>
      </trkpt>
      <trkpt lat="46.16673" lon="6.5534">
        <ele>1457</ele>
        <time>2025-01-11T09:41:02Z</time>
      </trkpt>
      <trkpt lat="46.16684" lon="6.55347">
        <ele>1461</ele>
        <time>2025-01-11T09:41:26Z</time>
      </trkpt>
      <trkpt lat="46.16688" lon="6.55349">
        <ele>1462</ele>
        <time>2025-01-11T09:41:34Z</time>
      </trkpt>
      <trkpt lat="46.16694" lon="6.55356">
        <ele>1467</ele>
        <time>2025-01-11T09:41:54Z</time>
      </trkpt>
      <trkpt lat="46.167" lon="6.55354">
        <ele>1469</ele>
        <time>2025-01-11T09:44:26Z</time>
      </trkpt>
      <trkpt lat="46.16702" lon="6.55341">
        <ele>1470</ele>
        <time>2025-01-11T09:45:42Z</time>
      </trkpt>
      <trkpt lat="46.16704" lon="6.5533">
        <ele>1469</ele>
        <time>2025-01-11T09:45:56Z</time>
      </trkpt>
      <trkpt lat="46.16705" lon="6.55325">
        <ele>1469</ele>
        <time>2025-01-11T09:46:04Z</time>
      </trkpt>
      <trkpt lat="46.16709" lon="6.55329">
        <ele>1470</ele>
        <time>2025-01-11T09:46:14Z</time>
      </trkpt>
      <trkpt lat="46.16712" lon="6.55332">
        <ele>1472</ele>
        <time>2025-01-11T09:46:22Z</time>
      </trkpt>
      <trkpt lat="46.16715" lon="6.55331">
        <ele>1474</ele>
        <time>2025-01-11T09:46:32Z</time>
      </trkpt>
      <trkpt lat="46.16726" lon="6.55338">
        <ele>1477</ele>
        <time>2025-01-11T09:47:00Z</time>
      </trkpt>
      <trkpt lat="46.1673" lon="6.55338">
        <ele>1477</ele>
        <time>2025-01-11T09:47:08Z</time>
      </trkpt>
      <trkpt lat="46.16733" lon="6.55338">
        <ele>1479</ele>
        <time>2025-01-11T09:47:14Z</time>
      </trkpt>
      <trkpt lat="46.16737" lon="6.55337">
        <ele>1479</ele>
        <time>2025-01-11T09:47:20Z</time>
      </trkpt>
      <trkpt lat="46.16741" lon="6.55336">
        <ele>1480</ele>
        <time>2025-01-11T09:47:28Z</time>
      </trkpt>
      <trkpt lat="46.16745" lon="6.55335">
        <ele>1481</ele>
        <time>2025-01-11T09:47:36Z</time>
      </trkpt>
      <trkpt lat="46.16754" lon="6.55333">
        <ele>1482</ele>
        <time>2025-01-11T09:47:58Z</time>
      </trkpt>
      <trkpt lat="46.16756" lon="6.55327">
        <ele>1484</ele>
        <time>2025-01-11T09:48:06Z</time>
      </trkpt>
      <trkpt lat="46.16758" lon="6.55322">
        <ele>1485</ele>
        <time>2025-01-11T09:48:14Z</time>
      </trkpt>
      <trkpt lat="46.16761" lon="6.55324">
        <ele>1485</ele>
        <time>2025-01-11T09:48:22Z</time>
      </trkpt>
      <trkpt lat="46.16773" lon="6.5532">
        <ele>1491</ele>
        <time>2025-01-11T09:48:52Z</time>
      </trkpt>
      <trkpt lat="46.16783" lon="6.55306">
        <ele>1492</ele>
        <time>2025-01-11T09:49:22Z</time>
      </trkpt>
      <trkpt lat="46.16792" lon="6.55305">
        <ele>1493</ele>
        <time>2025-01-11T09:49:42Z</time>
      </trkpt>
      <trkpt lat="46.16801" lon="6.55308">
        <ele>1496</ele>
        <time>2025-01-11T09:50:18Z</time>
      </trkpt>
      <trkpt lat="46.1681" lon="6.55312">
        <ele>1497</ele>
        <time>2025-01-11T09:50:34Z</time>
      </trkpt>
      <trkpt lat="46.16814" lon="6.55324">
        <ele>1502</ele>
        <time>2025-01-11T09:50:54Z</time>
      </trkpt>
      <trkpt lat="46.16816" lon="6.5533">
        <ele>1505</ele>
        <time>2025-01-11T09:51:04Z</time>
      </trkpt>
      <trkpt lat="46.16818" lon="6.55336">
        <ele>1507</ele>
        <time>2025-01-11T09:51:14Z</time>
      </trkpt>
      <trkpt lat="46.1682" lon="6.55341">
        <ele>1509</ele>
        <time>2025-01-11T09:52:00Z</time>
      </trkpt>
      <trkpt lat="46.16829" lon="6.55369">
        <ele>1510</ele>
        <time>2025-01-11T09:52:30Z</time>
      </trkpt>
      <trkpt lat="46.16838" lon="6.55388">
        <ele>1511</ele>
        <time>2025-01-11T09:52:58Z</time>
      </trkpt>
      <trkpt lat="46.1684" lon="6.55399">
        <ele>1513</ele>
        <time>2025-01-11T09:53:12Z</time>
      </trkpt>
      <trkpt lat="46.16842" lon="6.55404">
        <ele>1515</ele>
        <time>2025-01-11T09:53:20Z</time>
      </trkpt>
      <trkpt lat="46.16851" lon="6.55395">
        <ele>1516</ele>
        <time>2025-01-11T09:53:42Z</time>
      </trkpt>
      <trkpt lat="46.16858" lon="6.55382">
        <ele>1517</ele>
        <time>2025-01-11T09:54:10Z</time>
      </trkpt>
      <trkpt lat="46.1686" lon="6.55378">
        <ele>1517</ele>
        <time>2025-01-11T09:54:20Z</time>
      </trkpt>
      <trkpt lat="46.16866" lon="6.55371">
        <ele>1520</ele>
        <time>2025-01-11T09:54:40Z</time>
      </trkpt>
      <trkpt lat="46.16872" lon="6.55365">
        <ele>1523</ele>
        <time>2025-01-11T09:55:00Z</time>
      </trkpt>
      <trkpt lat="46.16884" lon="6.55349">
        <ele>1527</ele>
        <time>2025-01-11T09:55:36Z</time>
      </trkpt>
      <trkpt lat="46.1689" lon="6.55342">
        <ele>1530</ele>
        <time>2025-01-11T09:55:54Z</time>
      </trkpt>
      <trkpt lat="46.16893" lon="6.5534">
        <ele>1531</ele>
        <time>2025-01-11T09:56:04Z</time>
      </trkpt>
      <trkpt lat="46.16902" lon="6.55335">
        <ele>1533</ele>
        <time>2025-01-11T09:56:28Z</time>
      </trkpt>
      <trkpt lat="46.16911" lon="6.55334">
        <ele>1538</ele>
        <time>2025-01-11T09:56:50Z</time>
      </trkpt>
      <trkpt lat="46.16921" lon="6.55335">
        <ele>1540</ele>
        <time>2025-01-11T09:57:18Z</time>
      </trkpt>
      <trkpt lat="46.16939" lon="6.55341">
        <ele>1546</ele>
        <time>2025-01-11T09:58:04Z</time>
      </trkpt>
      <trkpt lat="46.16957" lon="6.55346">
        <ele>1551</ele>
        <time>2025-01-11T09:58:44Z</time>
      </trkpt>
      <trkpt lat="46.16967" lon="6.55347">
        <ele>1554</ele>
        <time>2025-01-11T09:59:04Z</time>
      </trkpt>
      <trkpt lat="46.16976" lon="6.5535">
        <ele>1555</ele>
        <time>2025-01-11T09:59:24Z</time>
      </trkpt>
      <trkpt lat="46.16982" lon="6.55359">
        <ele>1558</ele>
        <time>2025-01-11T09:59:42Z</time>
      </trkpt>
      <trkpt lat="46.16986" lon="6.55368">
        <ele>1561</ele>
        <time>2025-01-11T10:00:04Z</time>
      </trkpt>
      <trkpt lat="46.16988" lon="6.55379">
        <ele>1564</ele>
        <time>2025-01-11T10:00:22Z</time>
      </trkpt>
      <trkpt lat="46.16989" lon="6.55385">
        <ele>1565</ele>
        <time>2025-01-11T10:00:32Z</time>
      </trkpt>
      <trkpt lat="46.16989" lon="6.55391">
        <ele>1566</ele>
        <time>2025-01-11T10:00:42Z</time>
      </trkpt>
      <trkpt lat="46.16991" lon="6.55396">
        <ele>1567</ele>
        <time>2025-01-11T10:00:50Z</time>
      </trkpt>
      <trkpt lat="46.16995" lon="6.55398">
        <ele>1567</ele>
        <time>2025-01-11T10:00:58Z</time>
      </trkpt>
      <trkpt lat="46.16998" lon="6.55398">
        <ele>1568</ele>
        <time>2025-01-11T10:01:10Z</time>
      </trkpt>
      <trkpt lat="46.17007" lon="6.55396">
        <ele>1569</ele>
        <time>2025-01-11T10:01:32Z</time>
      </trkpt>
      <trkpt lat="46.17016" lon="6.55402">
        <ele>1572</ele>
        <time>2025-01-11T10:07:16Z</time>
      </trkpt>
      <trkpt lat="46.17019" lon="6.55414">
        <ele>1573</ele>
        <time>2025-01-11T10:07:32Z</time>
      </trkpt>
      <trkpt lat="46.17023" lon="6.55426">
        <ele>1578</ele>
        <time>2025-01-11T10:07:49Z</time>
      </trkpt>
      <trkpt lat="46.17028" lon="6.55436">
        <ele>1582</ele>
        <time>2025-01-11T10:08:11Z</time>
      </trkpt>
      <trkpt lat="46.17032" lon="6.55439">
        <ele>1583</ele>
        <time>2025-01-11T10:08:49Z</time>
      </trkpt>
      <trkpt lat="46.17039" lon="6.55448">
        <ele>1583</ele>
        <time>2025-01-11T10:09:05Z</time>
      </trkpt>
      <trkpt lat="46.17046" lon="6.55457">
        <ele>1585</ele>
        <time>2025-01-11T10:09:21Z</time>
      </trkpt>
      <trkpt lat="46.17053" lon="6.55466">
        <ele>1587</ele>
        <time>2025-01-11T10:09:37Z</time>
      </trkpt>
      <trkpt lat="46.17061" lon="6.55475">
        <ele>1591</ele>
        <time>2025-01-11T10:09:55Z</time>
      </trkpt>
      <trkpt lat="46.17067" lon="6.55485">
        <ele>1593</ele>
        <time>2025-01-11T10:10:13Z</time>
      </trkpt>
      <trkpt lat="46.17074" lon="6.55495">
        <ele>1597</ele>
        <time>2025-01-11T10:10:31Z</time>
      </trkpt>
      <trkpt lat="46.17087" lon="6.55502">
        <ele>1601</ele>
        <time>2025-01-11T10:11:31Z</time>
      </trkpt>
      <trkpt lat="46.1709" lon="6.55502">
        <ele>1600</ele>
        <time>2025-01-11T10:12:29Z</time>
      </trkpt>
      <trkpt lat="46.17096" lon="6.55496">
        <ele>1602</ele>
        <time>2025-01-11T10:12:47Z</time>
      </trkpt>
      <trkpt lat="46.17102" lon="6.55485">
        <ele>1603</ele>
        <time>2025-01-11T10:13:09Z</time>
      </trkpt>
      <trkpt lat="46.17108" lon="6.55475">
        <ele>1607</ele>
        <time>2025-01-11T10:13:35Z</time>
      </trkpt>
      <trkpt lat="46.17114" lon="6.55464">
        <ele>1609</ele>
        <time>2025-01-11T10:14:01Z</time>
      </trkpt>
      <trkpt lat="46.1712" lon="6.55455">
        <ele>1612</ele>
        <time>2025-01-11T10:14:29Z</time>
      </trkpt>
      <trkpt lat="46.17126" lon="6.55446">
        <ele>1614</ele>
        <time>2025-01-11T10:14:55Z</time>
      </trkpt>
      <trkpt lat="46.17132" lon="6.55435">
        <ele>1618</ele>
        <time>2025-01-11T10:15:23Z</time>
      </trkpt>
      <trkpt lat="46.17139" lon="6.55426">
        <ele>1620</ele>
        <time>2025-01-11T10:15:51Z</time>
      </trkpt>
      <trkpt lat="46.17148" lon="6.55425">
        <ele>1625</ele>
        <time>2025-01-11T10:16:19Z</time>
      </trkpt>
      <trkpt lat="46.17157" lon="6.55428">
        <ele>1630</ele>
        <time>2025-01-11T10:16:46Z</time>
      </trkpt>
      <trkpt lat="46.17164" lon="6.55426">
        <ele>1632</ele>
        <time>2025-01-11T10:17:05Z</time>
      </trkpt>
      <trkpt lat="46.17177" lon="6.55427">
        <ele>1636</ele>
        <time>2025-01-11T10:17:31Z</time>
      </trkpt>
      <trkpt lat="46.17184" lon="6.55427">
        <ele>1636</ele>
        <time>2025-01-11T10:17:47Z</time>
      </trkpt>
      <trkpt lat="46.17194" lon="6.55429">
        <ele>1640</ele>
        <time>2025-01-11T10:18:19Z</time>
      </trkpt>
      <trkpt lat="46.17203" lon="6.55433">
        <ele>1642</ele>
        <time>2025-01-11T10:18:49Z</time>
      </trkpt>
      <trkpt lat="46.17211" lon="6.5543">
        <ele>1647</ele>
        <time>2025-01-11T10:19:09Z</time>
      </trkpt>
      <trkpt lat="46.1722" lon="6.55425">
        <ele>1648</ele>
        <time>2025-01-11T10:19:31Z</time>
      </trkpt>
      <trkpt lat="46.17228" lon="6.55419">
        <ele>1651</ele>
        <time>2025-01-11T10:19:51Z</time>
      </trkpt>
      <trkpt lat="46.17236" lon="6.55413">
        <ele>1654</ele>
        <time>2025-01-11T10:20:09Z</time>
      </trkpt>
      <trkpt lat="46.17244" lon="6.55405">
        <ele>1657</ele>
        <time>2025-01-11T10:20:31Z</time>
      </trkpt>
      <trkpt lat="46.17251" lon="6.55397">
        <ele>1661</ele>
        <time>2025-01-11T10:20:53Z</time>
      </trkpt>
      <trkpt lat="46.17254" lon="6.55398">
        <ele>1667</ele>
        <time>2025-01-11T10:21:52Z</time>
      </trkpt>
      <trkpt lat="46.17261" lon="6.55389">
        <ele>1671</ele>
        <time>2025-01-11T10:25:22Z</time>
      </trkpt>
      <trkpt lat="46.17265" lon="6.55363">
        <ele>1670</ele>
        <time>2025-01-11T10:26:02Z</time>
      </trkpt>
      <trkpt lat="46.17265" lon="6.55349">
        <ele>1673</ele>
        <time>2025-01-11T10:26:22Z</time>
      </trkpt>
      <trkpt lat="46.17272" lon="6.5534">
        <ele>1675</ele>
        <time>2025-01-11T10:26:52Z</time>
      </trkpt>
      <trkpt lat="46.17281" lon="6.55337">
        <ele>1679</ele>
        <time>2025-01-11T10:27:24Z</time>
      </trkpt>
      <trkpt lat="46.17291" lon="6.55336">
        <ele>1681</ele>
        <time>2025-01-11T10:27:46Z</time>
      </trkpt>
      <trkpt lat="46.173" lon="6.55337">
        <ele>1683</ele>
        <time>2025-01-11T10:28:12Z</time>
      </trkpt>
      <trkpt lat="46.17309" lon="6.55339">
        <ele>1687</ele>
        <time>2025-01-11T10:28:38Z</time>
      </trkpt>
      <trkpt lat="46.17317" lon="6.55331">
        <ele>1690</ele>
        <time>2025-01-11T10:29:02Z</time>
      </trkpt>
      <trkpt lat="46.1732" lon="6.55318">
        <ele>1693</ele>
        <time>2025-01-11T10:29:28Z</time>
      </trkpt>
      <trkpt lat="46.17323" lon="6.55304">
        <ele>1697</ele>
        <time>2025-01-11T10:29:52Z</time>
      </trkpt>
      <trkpt lat="46.17323" lon="6.55291">
        <ele>1700</ele>
        <time>2025-01-11T10:30:20Z</time>
      </trkpt>
      <trkpt lat="46.17333" lon="6.55295">
        <ele>1703</ele>
        <time>2025-01-11T10:31:30Z</time>
      </trkpt>
      <trkpt lat="46.17341" lon="6.55302">
        <ele>1709</ele>
        <time>2025-01-11T10:31:54Z</time>
      </trkpt>
      <trkpt lat="46.17348" lon="6.55312">
        <ele>1715</ele>
        <time>2025-01-11T10:32:20Z</time>
      </trkpt>
      <trkpt lat="46.17346" lon="6.55311">
        <ele>1721</ele>
        <time>2025-01-11T10:35:20Z</time>
      </trkpt>
      <trkpt lat="46.17351" lon="6.55314">
        <ele>1710</ele>
        <time>2025-01-11T10:48:01Z</time>
      </trkpt>
      <trkpt lat="46.17359" lon="6.55307">
        <ele>1710</ele>
        <time>2025-01-11T10:48:35Z</time>
      </trkpt>
      <trkpt lat="46.17361" lon="6.55294">
        <ele>1711</ele>
        <time>2025-01-11T10:48:53Z</time>
      </trkpt>
      <trkpt lat="46.17363" lon="6.55281">
        <ele>1721</ele>
        <time>2025-01-11T10:49:13Z</time>
      </trkpt>
      <trkpt lat="46.17371" lon="6.55288">
        <ele>1724</ele>
        <time>2025-01-11T10:49:45Z</time>
      </trkpt>
      <trkpt lat="46.17379" lon="6.55295">
        <ele>1727</ele>
        <time>2025-01-11T10:50:07Z</time>
      </trkpt>
      <trkpt lat="46.17387" lon="6.55289">
        <ele>1738</ele>
        <time>2025-01-11T10:50:49Z</time>
      </trkpt>
      <trkpt lat="46.17398" lon="6.55285">
        <ele>1747</ele>
        <time>2025-01-11T10:51:40Z</time>
      </trkpt>
      <trkpt lat="46.17407" lon="6.553">
        <ele>1757</ele>
        <time>2025-01-11T10:52:17Z</time>
      </trkpt>
      <trkpt lat="46.17409" lon="6.55295">
        <ele>1758</ele>
        <time>2025-01-11T10:52:27Z</time>
      </trkpt>
      <trkpt lat="46.17411" lon="6.55291">
        <ele>1758</ele>
        <time>2025-01-11T10:52:35Z</time>
      </trkpt>
      <trkpt lat="46.17414" lon="6.55277">
        <ele>1760</ele>
        <time>2025-01-11T10:53:07Z</time>
      </trkpt>
      <trkpt lat="46.17417" lon="6.55279">
        <ele>1766</ele>
        <time>2025-01-11T10:53:50Z</time>
      </trkpt>
      <trkpt lat="46.17432" lon="6.553">
        <ele>1773</ele>
        <time>2025-01-11T10:54:34Z</time>
      </trkpt>
      <trkpt lat="46.17441" lon="6.553">
        <ele>1779</ele>
        <time>2025-01-11T10:55:22Z</time>
      </trkpt>
      <trkpt lat="46.1745" lon="6.55299">
        <ele>1782</ele>
        <time>2025-01-11T10:56:14Z</time>
      </trkpt>
      <trkpt lat="46.17458" lon="6.55307">
        <ele>1784</ele>
        <time>2025-01-11T10:56:44Z</time>
      </trkpt>
      <trkpt lat="46.17467" lon="6.55304">
        <ele>1790</ele>
        <time>2025-01-11T10:57:16Z</time>
      </trkpt>
      <trkpt lat="46.17476" lon="6.55303">
        <ele>1795</ele>
        <time>2025-01-11T10:57:36Z</time>
      </trkpt>
      <trkpt lat="46.17486" lon="6.55299">
        <ele>1797</ele>
        <time>2025-01-11T10:57:54Z</time>
      </trkpt>
      <trkpt lat="46.17495" lon="6.55296">
        <ele>1800</ele>
        <time>2025-01-11T10:58:10Z</time>
      </trkpt>
      <trkpt lat="46.17504" lon="6.55293">
        <ele>1802</ele>
        <time>2025-01-11T10:58:34Z</time>
      </trkpt>
      <trkpt lat="46.17514" lon="6.5529">
        <ele>1804</ele>
        <time>2025-01-11T10:58:50Z</time>
      </trkpt>
      <trkpt lat="46.17523" lon="6.5529">
        <ele>1805</ele>
        <time>2025-01-11T10:59:08Z</time>
      </trkpt>
      <trkpt lat="46.17532" lon="6.5529">
        <ele>1810</ele>
        <time>2025-01-11T10:59:28Z</time>
      </trkpt>
      <trkpt lat="46.17542" lon="6.55288">
        <ele>1812</ele>
        <time>2025-01-11T10:59:48Z</time>
      </trkpt>
      <trkpt lat="46.1755" lon="6.55284">
        <ele>1815</ele>
        <time>2025-01-11T11:00:06Z</time>
      </trkpt>
      <trkpt lat="46.1756" lon="6.55281">
        <ele>1816</ele>
        <time>2025-01-11T11:00:26Z</time>
      </trkpt>
      <trkpt lat="46.17568" lon="6.55278">
        <ele>1820</ele>
        <time>2025-01-11T11:00:50Z</time>
      </trkpt>
      <trkpt lat="46.17578" lon="6.55276">
        <ele>1822</ele>
        <time>2025-01-11T11:01:16Z</time>
      </trkpt>
      <trkpt lat="46.17588" lon="6.55277">
        <ele>1829</ele>
        <time>2025-01-11T11:01:42Z</time>
      </trkpt>
      <trkpt lat="46.17597" lon="6.55278">
        <ele>1831</ele>
        <time>2025-01-11T11:02:12Z</time>
      </trkpt>
      <trkpt lat="46.17605" lon="6.55282">
        <ele>1837</ele>
        <time>2025-01-11T11:02:32Z</time>
      </trkpt>
      <trkpt lat="46.17606" lon="6.55269">
        <ele>1838</ele>
        <time>2025-01-11T11:03:06Z</time>
      </trkpt>
      <trkpt lat="46.17598" lon="6.55245">
        <ele>1836</ele>
        <time>2025-01-11T11:03:38Z</time>
      </trkpt>
      <trkpt lat="46.17592" lon="6.55236">
        <ele>1837</ele>
        <time>2025-01-11T11:03:54Z</time>
      </trkpt>
      <trkpt lat="46.17585" lon="6.55226">
        <ele>1838</ele>
        <time>2025-01-11T11:04:12Z</time>
      </trkpt>
      <trkpt lat="46.17578" lon="6.55216">
        <ele>1840</ele>
        <time>2025-01-11T11:04:36Z</time>
      </trkpt>
      <trkpt lat="46.17587" lon="6.5521">
        <ele>1847</ele>
        <time>2025-01-11T11:05:18Z</time>
      </trkpt>
      <trkpt lat="46.17576" lon="6.5519">
        <ele>1849</ele>
        <time>2025-01-11T11:05:54Z</time>
      </trkpt>
      <trkpt lat="46.17569" lon="6.5518">
        <ele>1852</ele>
        <time>2025-01-11T11:06:18Z</time>
      </trkpt>
      <trkpt lat="46.17572" lon="6.55168">
        <ele>1856</ele>
        <time>2025-01-11T11:08:40Z</time>
      </trkpt>
      <trkpt lat="46.17581" lon="6.55162">
        <ele>1862</ele>
        <time>2025-01-11T11:09:00Z</time>
      </trkpt>
      <trkpt lat="46.17589" lon="6.55155">
        <ele>1865</ele>
        <time>2025-01-11T11:09:20Z</time>
      </trkpt>
      <trkpt lat="46.17597" lon="6.55148">
        <ele>1870</ele>
        <time>2025-01-11T11:09:44Z</time>
      </trkpt>
      <trkpt lat="46.17605" lon="6.55141">
        <ele>1872</ele>
        <time>2025-01-11T11:10:06Z</time>
      </trkpt>
      <trkpt lat="46.17611" lon="6.55131">
        <ele>1877</ele>
        <time>2025-01-11T11:10:30Z</time>
      </trkpt>
      <trkpt lat="46.17618" lon="6.55123">
        <ele>1879</ele>
        <time>2025-01-11T11:10:52Z</time>
      </trkpt>
      <trkpt lat="46.17625" lon="6.55114">
        <ele>1883</ele>
        <time>2025-01-11T11:11:14Z</time>
      </trkpt>
      <trkpt lat="46.17627" lon="6.55101">
        <ele>1886</ele>
        <time>2025-01-11T11:12:04Z</time>
      </trkpt>
      <trkpt lat="46.17635" lon="6.55094">
        <ele>1889</ele>
        <time>2025-01-11T11:12:30Z</time>
      </trkpt>
      <trkpt lat="46.17634" lon="6.55081">
        <ele>1893</ele>
        <time>2025-01-11T11:13:06Z</time>
      </trkpt>
      <trkpt lat="46.17626" lon="6.55074">
        <ele>1894</ele>
        <time>2025-01-11T11:13:28Z</time>
      </trkpt>
      <trkpt lat="46.17618" lon="6.55068">
        <ele>1898</ele>
        <time>2025-01-11T11:13:54Z</time>
      </trkpt>
      <trkpt lat="46.17624" lon="6.55058">
        <ele>1902</ele>
        <time>2025-01-11T11:15:06Z</time>
      </trkpt>
      <trkpt lat="46.17616" lon="6.55051">
        <ele>1904</ele>
        <time>2025-01-11T11:15:38Z</time>
      </trkpt>
      <trkpt lat="46.17599" lon="6.55043">
        <ele>1912</ele>
        <time>2025-01-11T11:16:24Z</time>
      </trkpt>
      <trkpt lat="46.17598" lon="6.55031">
        <ele>1917</ele>
        <time>2025-01-11T11:18:54Z</time>
      </trkpt>
      <trkpt lat="46.17589" lon="6.55032">
        <ele>1920</ele>
        <time>2025-01-11T11:21:03Z</time>
      </trkpt>
      <trkpt lat="46.17582" lon="6.55024">
        <ele>1927</ele>
        <time>2025-01-11T11:26:03Z</time>
      </trkpt>
      <trkpt lat="46.17576" lon="6.55015">
        <ele>1928</ele>
        <time>2025-01-11T11:28:19Z</time>
      </trkpt>
      <trkpt lat="46.17569" lon="6.55015">
        <ele>1934</ele>
        <time>2025-01-11T11:28:45Z</time>
      </trkpt>
      <trkpt lat="46.17565" lon="6.55017">
        <ele>1936</ele>
        <time>2025-01-11T11:28:54Z</time>
      </trkpt>
      <trkpt lat="46.17566" lon="6.55012">
        <ele>1939</ele>
        <time>2025-01-11T11:29:42Z</time>
      </trkpt>
      <trkpt lat="46.17559" lon="6.55003">
        <ele>1941</ele>
        <time>2025-01-11T11:30:34Z</time>
      </trkpt>
      <trkpt lat="46.17552" lon="6.54993">
        <ele>1946</ele>
        <time>2025-01-11T11:30:56Z</time>
      </trkpt>
      <trkpt lat="46.17545" lon="6.54986">
        <ele>1947</ele>
        <time>2025-01-11T11:31:14Z</time>
      </trkpt>
      <trkpt lat="46.17537" lon="6.54983">
        <ele>1956</ele>
        <time>2025-01-11T12:08:53Z</time>
      </trkpt>
      <trkpt lat="46.17542" lon="6.54987">
        <ele>1954</ele>
        <time>2025-01-11T12:08:59Z</time>
      </trkpt>
      <trkpt lat="46.17548" lon="6.54993">
        <ele>1952</ele>
        <time>2025-01-11T12:09:33Z</time>
      </trkpt>
      <trkpt lat="46.17555" lon="6.54994">
        <ele>1952</ele>
        <time>2025-01-11T12:09:37Z</time>
      </trkpt>
      <trkpt lat="46.17556" lon="6.54997">
        <ele>1948</ele>
        <time>2025-01-11T12:09:48Z</time>
      </trkpt>
      <trkpt lat="46.17555" lon="6.55003">
        <ele>1949</ele>
        <time>2025-01-11T12:10:04Z</time>
      </trkpt>
      <trkpt lat="46.1756" lon="6.55005">
        <ele>1949</ele>
        <time>2025-01-11T12:10:54Z</time>
      </trkpt>
      <trkpt lat="46.17565" lon="6.55006">
        <ele>1948</ele>
        <time>2025-01-11T12:10:56Z</time>
      </trkpt>
      <trkpt lat="46.17568" lon="6.55011">
        <ele>1945</ele>
        <time>2025-01-11T12:11:04Z</time>
      </trkpt>
      <trkpt lat="46.17564" lon="6.55013">
        <ele>1943</ele>
        <time>2025-01-11T12:11:18Z</time>
      </trkpt>
      <trkpt lat="46.17562" lon="6.55019">
        <ele>1940</ele>
        <time>2025-01-11T12:11:30Z</time>
      </trkpt>
      <trkpt lat="46.17567" lon="6.55018">
        <ele>1938</ele>
        <time>2025-01-11T12:13:06Z</time>
      </trkpt>
      <trkpt lat="46.17582" lon="6.55014">
        <ele>1935</ele>
        <time>2025-01-11T12:13:10Z</time>
      </trkpt>
      <trkpt lat="46.17584" lon="6.55018">
        <ele>1935</ele>
        <time>2025-01-11T12:13:12Z</time>
      </trkpt>
      <trkpt lat="46.17582" lon="6.55025">
        <ele>1933</ele>
        <time>2025-01-11T12:13:14Z</time>
      </trkpt>
      <trkpt lat="46.17584" lon="6.5503">
        <ele>1931</ele>
        <time>2025-01-11T12:13:16Z</time>
      </trkpt>
      <trkpt lat="46.17582" lon="6.55034">
        <ele>1929</ele>
        <time>2025-01-11T12:13:18Z</time>
      </trkpt>
      <trkpt lat="46.17582" lon="6.55038">
        <ele>1923</ele>
        <time>2025-01-11T12:13:42Z</time>
      </trkpt>
      <trkpt lat="46.17595" lon="6.55038">
        <ele>1922</ele>
        <time>2025-01-11T12:13:46Z</time>
      </trkpt>
      <trkpt lat="46.17604" lon="6.55045">
        <ele>1919</ele>
        <time>2025-01-11T12:15:26Z</time>
      </trkpt>
      <trkpt lat="46.17606" lon="6.55063">
        <ele>1911</ele>
        <time>2025-01-11T12:15:30Z</time>
      </trkpt>
      <trkpt lat="46.17613" lon="6.55076">
        <ele>1906</ele>
        <time>2025-01-11T12:15:34Z</time>
      </trkpt>
      <trkpt lat="46.17621" lon="6.55104">
        <ele>1891</ele>
        <time>2025-01-11T12:16:00Z</time>
      </trkpt>
      <trkpt lat="46.17634" lon="6.55123">
        <ele>1889</ele>
        <time>2025-01-11T12:16:04Z</time>
      </trkpt>
      <trkpt lat="46.17639" lon="6.55137">
        <ele>1884</ele>
        <time>2025-01-11T12:16:08Z</time>
      </trkpt>
      <trkpt lat="46.17625" lon="6.55144">
        <ele>1873</ele>
        <time>2025-01-11T12:16:44Z</time>
      </trkpt>
      <trkpt lat="46.17612" lon="6.55147">
        <ele>1871</ele>
        <time>2025-01-11T12:16:48Z</time>
      </trkpt>
      <trkpt lat="46.17607" lon="6.55165">
        <ele>1871</ele>
        <time>2025-01-11T12:16:52Z</time>
      </trkpt>
      <trkpt lat="46.17594" lon="6.55179">
        <ele>1872</ele>
        <time>2025-01-11T12:16:56Z</time>
      </trkpt>
      <trkpt lat="46.17583" lon="6.55186">
        <ele>1869</ele>
        <time>2025-01-11T12:17:00Z</time>
      </trkpt>
      <trkpt lat="46.17573" lon="6.55192">
        <ele>1855</ele>
        <time>2025-01-11T12:17:08Z</time>
      </trkpt>
      <trkpt lat="46.17576" lon="6.55206">
        <ele>1844</ele>
        <time>2025-01-11T12:18:02Z</time>
      </trkpt>
      <trkpt lat="46.17575" lon="6.5522">
        <ele>1837</ele>
        <time>2025-01-11T12:18:06Z</time>
      </trkpt>
      <trkpt lat="46.17569" lon="6.55233">
        <ele>1833</ele>
        <time>2025-01-11T12:18:14Z</time>
      </trkpt>
      <trkpt lat="46.17576" lon="6.55245">
        <ele>1827</ele>
        <time>2025-01-11T12:18:18Z</time>
      </trkpt>
      <trkpt lat="46.17565" lon="6.5525">
        <ele>1824</ele>
        <time>2025-01-11T12:18:34Z</time>
      </trkpt>
      <trkpt lat="46.17571" lon="6.55266">
        <ele>1823</ele>
        <time>2025-01-11T12:18:38Z</time>
      </trkpt>
      <trkpt lat="46.17566" lon="6.5528">
        <ele>1813</ele>
        <time>2025-01-11T12:18:44Z</time>
      </trkpt>
      <trkpt lat="46.17565" lon="6.55298">
        <ele>1805</ele>
        <time>2025-01-11T12:19:58Z</time>
      </trkpt>
      <trkpt lat="46.17562" lon="6.5531">
        <ele>1801</ele>
        <time>2025-01-11T12:20:02Z</time>
      </trkpt>
      <trkpt lat="46.17551" lon="6.55311">
        <ele>1798</ele>
        <time>2025-01-11T12:20:06Z</time>
      </trkpt>
      <trkpt lat="46.17553" lon="6.55326">
        <ele>1790</ele>
        <time>2025-01-11T12:20:48Z</time>
      </trkpt>
      <trkpt lat="46.17543" lon="6.55324">
        <ele>1789</ele>
        <time>2025-01-11T12:20:56Z</time>
      </trkpt>
      <trkpt lat="46.17533" lon="6.5532">
        <ele>1785</ele>
        <time>2025-01-11T12:21:00Z</time>
      </trkpt>
      <trkpt lat="46.17522" lon="6.5532">
        <ele>1783</ele>
        <time>2025-01-11T12:21:04Z</time>
      </trkpt>
      <trkpt lat="46.17509" lon="6.55315">
        <ele>1780</ele>
        <time>2025-01-11T12:21:08Z</time>
      </trkpt>
      <trkpt lat="46.17504" lon="6.55326">
        <ele>1775</ele>
        <time>2025-01-11T12:21:30Z</time>
      </trkpt>
      <trkpt lat="46.17507" lon="6.55339">
        <ele>1773</ele>
        <time>2025-01-11T12:21:38Z</time>
      </trkpt>
      <trkpt lat="46.17507" lon="6.55346">
        <ele>1768</ele>
        <time>2025-01-11T12:21:44Z</time>
      </trkpt>
      <trkpt lat="46.17502" lon="6.55348">
        <ele>1766</ele>
        <time>2025-01-11T12:21:46Z</time>
      </trkpt>
      <trkpt lat="46.17503" lon="6.55355">
        <ele>1764</ele>
        <time>2025-01-11T12:21:50Z</time>
      </trkpt>
      <trkpt lat="46.17498" lon="6.55355">
        <ele>1762</ele>
        <time>2025-01-11T12:22:26Z</time>
      </trkpt>
      <trkpt lat="46.17496" lon="6.55363">
        <ele>1759</ele>
        <time>2025-01-11T12:22:28Z</time>
      </trkpt>
      <trkpt lat="46.17501" lon="6.55367">
        <ele>1757</ele>
        <time>2025-01-11T12:22:30Z</time>
      </trkpt>
      <trkpt lat="46.17502" lon="6.55376">
        <ele>1753</ele>
        <time>2025-01-11T12:22:34Z</time>
      </trkpt>
      <trkpt lat="46.17504" lon="6.55381">
        <ele>1749</ele>
        <time>2025-01-11T12:22:36Z</time>
      </trkpt>
      <trkpt lat="46.175" lon="6.55385">
        <ele>1747</ele>
        <time>2025-01-11T12:22:38Z</time>
      </trkpt>
      <trkpt lat="46.17504" lon="6.55392">
        <ele>1744</ele>
        <time>2025-01-11T12:22:40Z</time>
      </trkpt>
      <trkpt lat="46.17503" lon="6.55399">
        <ele>1743</ele>
        <time>2025-01-11T12:22:42Z</time>
      </trkpt>
      <trkpt lat="46.17494" lon="6.55409">
        <ele>1740</ele>
        <time>2025-01-11T12:23:16Z</time>
      </trkpt>
      <trkpt lat="46.17501" lon="6.55441">
        <ele>1728</ele>
        <time>2025-01-11T12:23:30Z</time>
      </trkpt>
      <trkpt lat="46.17509" lon="6.55454">
        <ele>1725</ele>
        <time>2025-01-11T12:23:36Z</time>
      </trkpt>
      <trkpt lat="46.17499" lon="6.5546">
        <ele>1723</ele>
        <time>2025-01-11T12:23:50Z</time>
      </trkpt>
      <trkpt lat="46.17505" lon="6.55473">
        <ele>1718</ele>
        <time>2025-01-11T12:23:54Z</time>
      </trkpt>
      <trkpt lat="46.17505" lon="6.55487">
        <ele>1715</ele>
        <time>2025-01-11T12:24:52Z</time>
      </trkpt>
      <trkpt lat="46.175" lon="6.55501">
        <ele>1709</ele>
        <time>2025-01-11T12:24:56Z</time>
      </trkpt>
      <trkpt lat="46.17506" lon="6.5552">
        <ele>1705</ele>
        <time>2025-01-11T12:25:00Z</time>
      </trkpt>
      <trkpt lat="46.17515" lon="6.55535">
        <ele>1702</ele>
        <time>2025-01-11T12:25:04Z</time>
      </trkpt>
      <trkpt lat="46.17522" lon="6.55557">
        <ele>1698</ele>
        <time>2025-01-11T12:25:08Z</time>
      </trkpt>
      <trkpt lat="46.17528" lon="6.5558">
        <ele>1696</ele>
        <time>2025-01-11T12:25:12Z</time>
      </trkpt>
      <trkpt lat="46.17523" lon="6.55592">
        <ele>1693</ele>
        <time>2025-01-11T12:25:20Z</time>
      </trkpt>
      <trkpt lat="46.17521" lon="6.55612">
        <ele>1690</ele>
        <time>2025-01-11T12:25:24Z</time>
      </trkpt>
      <trkpt lat="46.17508" lon="6.55619">
        <ele>1687</ele>
        <time>2025-01-11T12:25:28Z</time>
      </trkpt>
      <trkpt lat="46.17496" lon="6.5561">
        <ele>1684</ele>
        <time>2025-01-11T12:25:32Z</time>
      </trkpt>
      <trkpt lat="46.17489" lon="6.5562">
        <ele>1684</ele>
        <time>2025-01-11T12:25:36Z</time>
      </trkpt>
      <trkpt lat="46.17486" lon="6.55633">
        <ele>1683</ele>
        <time>2025-01-11T12:26:08Z</time>
      </trkpt>
      <trkpt lat="46.17479" lon="6.55647">
        <ele>1683</ele>
        <time>2025-01-11T12:27:24Z</time>
      </trkpt>
      <trkpt lat="46.17476" lon="6.55659">
        <ele>1681</ele>
        <time>2025-01-11T12:27:26Z</time>
      </trkpt>
      <trkpt lat="46.17468" lon="6.55678">
        <ele>1679</ele>
        <time>2025-01-11T12:27:30Z</time>
      </trkpt>
      <trkpt lat="46.17462" lon="6.55688">
        <ele>1676</ele>
        <time>2025-01-11T12:27:32Z</time>
      </trkpt>
      <trkpt lat="46.17454" lon="6.55709">
        <ele>1674</ele>
        <time>2025-01-11T12:27:36Z</time>
      </trkpt>
      <trkpt lat="46.17449" lon="6.55727">
        <ele>1671</ele>
        <time>2025-01-11T12:27:40Z</time>
      </trkpt>
      <trkpt lat="46.17447" lon="6.55743">
        <ele>1668</ele>
        <time>2025-01-11T12:27:44Z</time>
      </trkpt>
      <trkpt lat="46.17449" lon="6.55759">
        <ele>1666</ele>
        <time>2025-01-11T12:27:48Z</time>
      </trkpt>
      <trkpt lat="46.17454" lon="6.55771">
        <ele>1664</ele>
        <time>2025-01-11T12:27:52Z</time>
      </trkpt>
      <trkpt lat="46.17446" lon="6.55776">
        <ele>1662</ele>
        <time>2025-01-11T12:27:56Z</time>
      </trkpt>
      <trkpt lat="46.17447" lon="6.55793">
        <ele>1659</ele>
        <time>2025-01-11T12:28:02Z</time>
      </trkpt>
      <trkpt lat="46.17439" lon="6.55805">
        <ele>1654</ele>
        <time>2025-01-11T12:28:06Z</time>
      </trkpt>
      <trkpt lat="46.17433" lon="6.55815">
        <ele>1650</ele>
        <time>2025-01-11T12:28:10Z</time>
      </trkpt>
      <trkpt lat="46.17435" lon="6.55828">
        <ele>1645</ele>
        <time>2025-01-11T12:28:22Z</time>
      </trkpt>
      <trkpt lat="46.17442" lon="6.5584">
        <ele>1642</ele>
        <time>2025-01-11T12:28:26Z</time>
      </trkpt>
      <trkpt lat="46.17449" lon="6.55852">
        <ele>1641</ele>
        <time>2025-01-11T12:28:30Z</time>
      </trkpt>
      <trkpt lat="46.1744" lon="6.55871">
        <ele>1637</ele>
        <time>2025-01-11T12:28:34Z</time>
      </trkpt>
      <trkpt lat="46.1743" lon="6.55882">
        <ele>1636</ele>
        <time>2025-01-11T12:28:38Z</time>
      </trkpt>
      <trkpt lat="46.17416" lon="6.55895">
        <ele>1632</ele>
        <time>2025-01-11T12:28:42Z</time>
      </trkpt>
      <trkpt lat="46.17407" lon="6.55909">
        <ele>1628</ele>
        <time>2025-01-11T12:28:46Z</time>
      </trkpt>
      <trkpt lat="46.17398" lon="6.55916">
        <ele>1624</ele>
        <time>2025-01-11T12:29:20Z</time>
      </trkpt>
      <trkpt lat="46.17392" lon="6.55927">
        <ele>1622</ele>
        <time>2025-01-11T12:29:22Z</time>
      </trkpt>
      <trkpt lat="46.1738" lon="6.55943">
        <ele>1619</ele>
        <time>2025-01-11T12:29:26Z</time>
      </trkpt>
      <trkpt lat="46.17371" lon="6.55963">
        <ele>1616</ele>
        <time>2025-01-11T12:29:30Z</time>
      </trkpt>
      <trkpt lat="46.17364" lon="6.55975">
        <ele>1614</ele>
        <time>2025-01-11T12:29:34Z</time>
      </trkpt>
      <trkpt lat="46.17355" lon="6.55989">
        <ele>1613</ele>
        <time>2025-01-11T12:29:38Z</time>
      </trkpt>
      <trkpt lat="46.17346" lon="6.55992">
        <ele>1612</ele>
        <time>2025-01-11T12:29:40Z</time>
      </trkpt>
      <trkpt lat="46.17337" lon="6.55999">
        <ele>1611</ele>
        <time>2025-01-11T12:29:44Z</time>
      </trkpt>
      <trkpt lat="46.17316" lon="6.56019">
        <ele>1609</ele>
        <time>2025-01-11T12:29:52Z</time>
      </trkpt>
      <trkpt lat="46.17308" lon="6.56004">
        <ele>1607</ele>
        <time>2025-01-11T12:30:02Z</time>
      </trkpt>
      <trkpt lat="46.17295" lon="6.56005">
        <ele>1604</ele>
        <time>2025-01-11T12:30:08Z</time>
      </trkpt>
      <trkpt lat="46.1728" lon="6.5602">
        <ele>1603</ele>
        <time>2025-01-11T12:30:12Z</time>
      </trkpt>
      <trkpt lat="46.17274" lon="6.56031">
        <ele>1602</ele>
        <time>2025-01-11T12:30:14Z</time>
      </trkpt>
      <trkpt lat="46.17269" lon="6.56046">
        <ele>1600</ele>
        <time>2025-01-11T12:30:18Z</time>
      </trkpt>
      <trkpt lat="46.17256" lon="6.56046">
        <ele>1597</ele>
        <time>2025-01-11T12:30:24Z</time>
      </trkpt>
      <trkpt lat="46.17237" lon="6.5608">
        <ele>1592</ele>
        <time>2025-01-11T12:30:30Z</time>
      </trkpt>
      <trkpt lat="46.17229" lon="6.56098">
        <ele>1589</ele>
        <time>2025-01-11T12:30:34Z</time>
      </trkpt>
      <trkpt lat="46.17225" lon="6.5611">
        <ele>1587</ele>
        <time>2025-01-11T12:30:38Z</time>
      </trkpt>
      <trkpt lat="46.17227" lon="6.56123">
        <ele>1584</ele>
        <time>2025-01-11T12:32:24Z</time>
      </trkpt>
      <trkpt lat="46.17233" lon="6.56161">
        <ele>1581</ele>
        <time>2025-01-11T12:32:34Z</time>
      </trkpt>
      <trkpt lat="46.17235" lon="6.56176">
        <ele>1579</ele>
        <time>2025-01-11T12:32:38Z</time>
      </trkpt>
      <trkpt lat="46.17242" lon="6.56194">
        <ele>1576</ele>
        <time>2025-01-11T12:32:42Z</time>
      </trkpt>
      <trkpt lat="46.17244" lon="6.56216">
        <ele>1574</ele>
        <time>2025-01-11T12:32:46Z</time>
      </trkpt>
      <trkpt lat="46.17247" lon="6.56237">
        <ele>1571</ele>
        <time>2025-01-11T12:32:50Z</time>
      </trkpt>
      <trkpt lat="46.17233" lon="6.56253">
        <ele>1568</ele>
        <time>2025-01-11T12:32:54Z</time>
      </trkpt>
      <trkpt lat="46.17224" lon="6.56252">
        <ele>1567</ele>
        <time>2025-01-11T12:32:56Z</time>
      </trkpt>
      <trkpt lat="46.17215" lon="6.56256">
        <ele>1566</ele>
        <time>2025-01-11T12:32:58Z</time>
      </trkpt>
      <trkpt lat="46.17176" lon="6.563">
        <ele>1562</ele>
        <time>2025-01-11T12:33:10Z</time>
      </trkpt>
      <trkpt lat="46.1716" lon="6.56305">
        <ele>1561</ele>
        <time>2025-01-11T12:33:14Z</time>
      </trkpt>
      <trkpt lat="46.17149" lon="6.56317">
        <ele>1560</ele>
        <time>2025-01-11T12:33:18Z</time>
      </trkpt>
      <trkpt lat="46.17137" lon="6.56326">
        <ele>1555</ele>
        <time>2025-01-11T12:33:22Z</time>
      </trkpt>
      <trkpt lat="46.17135" lon="6.56341">
        <ele>1552</ele>
        <time>2025-01-11T12:33:26Z</time>
      </trkpt>
      <trkpt lat="46.17132" lon="6.5636">
        <ele>1548</ele>
        <time>2025-01-11T12:33:30Z</time>
      </trkpt>
      <trkpt lat="46.17119" lon="6.56402">
        <ele>1545</ele>
        <time>2025-01-11T12:33:52Z</time>
      </trkpt>
      <trkpt lat="46.1711" lon="6.56409">
        <ele>1545</ele>
        <time>2025-01-11T12:34:18Z</time>
      </trkpt>
      <trkpt lat="46.171" lon="6.564">
        <ele>1544</ele>
        <time>2025-01-11T12:34:22Z</time>
      </trkpt>
      <trkpt lat="46.17087" lon="6.56399">
        <ele>1544</ele>
        <time>2025-01-11T12:34:26Z</time>
      </trkpt>
      <trkpt lat="46.17066" lon="6.56405">
        <ele>1541</ele>
        <time>2025-01-11T12:34:32Z</time>
      </trkpt>
      <trkpt lat="46.17053" lon="6.564">
        <ele>1537</ele>
        <time>2025-01-11T12:34:48Z</time>
      </trkpt>
      <trkpt lat="46.17044" lon="6.56384">
        <ele>1536</ele>
        <time>2025-01-11T12:34:50Z</time>
      </trkpt>
      <trkpt lat="46.17016" lon="6.56355">
        <ele>1533</ele>
        <time>2025-01-11T12:34:56Z</time>
      </trkpt>
      <trkpt lat="46.17005" lon="6.56348">
        <ele>1533</ele>
        <time>2025-01-11T12:35:00Z</time>
      </trkpt>
      <trkpt lat="46.16978" lon="6.56334">
        <ele>1531</ele>
        <time>2025-01-11T12:35:08Z</time>
      </trkpt>
      <trkpt lat="46.16968" lon="6.56333">
        <ele>1530</ele>
        <time>2025-01-11T12:35:12Z</time>
      </trkpt>
      <trkpt lat="46.16959" lon="6.5632">
        <ele>1527</ele>
        <time>2025-01-11T12:35:16Z</time>
      </trkpt>
      <trkpt lat="46.16947" lon="6.56311">
        <ele>1525</ele>
        <time>2025-01-11T12:36:28Z</time>
      </trkpt>
      <trkpt lat="46.16938" lon="6.5631">
        <ele>1523</ele>
        <time>2025-01-11T12:36:30Z</time>
      </trkpt>
      <trkpt lat="46.16928" lon="6.56312">
        <ele>1522</ele>
        <time>2025-01-11T12:36:32Z</time>
      </trkpt>
      <trkpt lat="46.16923" lon="6.56299">
        <ele>1521</ele>
        <time>2025-01-11T12:36:34Z</time>
      </trkpt>
      <trkpt lat="46.16907" lon="6.56276">
        <ele>1516</ele>
        <time>2025-01-11T12:36:38Z</time>
      </trkpt>
      <trkpt lat="46.16897" lon="6.56268">
        <ele>1513</ele>
        <time>2025-01-11T12:36:40Z</time>
      </trkpt>
      <trkpt lat="46.16889" lon="6.56257">
        <ele>1512</ele>
        <time>2025-01-11T12:36:42Z</time>
      </trkpt>
      <trkpt lat="46.16877" lon="6.56252">
        <ele>1510</ele>
        <time>2025-01-11T12:36:44Z</time>
      </trkpt>
      <trkpt lat="46.16867" lon="6.56249">
        <ele>1509</ele>
        <time>2025-01-11T12:36:46Z</time>
      </trkpt>
      <trkpt lat="46.16857" lon="6.56243">
        <ele>1506</ele>
        <time>2025-01-11T12:36:48Z</time>
      </trkpt>
      <trkpt lat="46.16846" lon="6.56238">
        <ele>1504</ele>
        <time>2025-01-11T12:36:50Z</time>
      </trkpt>
      <trkpt lat="46.16837" lon="6.56232">
        <ele>1500</ele>
        <time>2025-01-11T12:36:52Z</time>
      </trkpt>
      <trkpt lat="46.16823" lon="6.56219">
        <ele>1496</ele>
        <time>2025-01-11T12:36:56Z</time>
      </trkpt>
      <trkpt lat="46.16826" lon="6.56204">
        <ele>1490</ele>
        <time>2025-01-11T12:37:00Z</time>
      </trkpt>
      <trkpt lat="46.16826" lon="6.56177">
        <ele>1486</ele>
        <time>2025-01-11T12:37:04Z</time>
      </trkpt>
      <trkpt lat="46.16831" lon="6.56165">
        <ele>1484</ele>
        <time>2025-01-11T12:37:06Z</time>
      </trkpt>
      <trkpt lat="46.16839" lon="6.56145">
        <ele>1482</ele>
        <time>2025-01-11T12:37:10Z</time>
      </trkpt>
      <trkpt lat="46.16847" lon="6.56128">
        <ele>1480</ele>
        <time>2025-01-11T12:37:14Z</time>
      </trkpt>
      <trkpt lat="46.16855" lon="6.5611">
        <ele>1478</ele>
        <time>2025-01-11T12:37:50Z</time>
      </trkpt>
      <trkpt lat="46.1686" lon="6.5609">
        <ele>1479</ele>
        <time>2025-01-11T12:37:55Z</time>
      </trkpt>
      <trkpt lat="46.16875" lon="6.56052">
        <ele>1478</ele>
        <time>2025-01-11T12:38:01Z</time>
      </trkpt>
      <trkpt lat="46.16879" lon="6.56005">
        <ele>1477</ele>
        <time>2025-01-11T12:38:07Z</time>
      </trkpt>
      <trkpt lat="46.16869" lon="6.55955">
        <ele>1474</ele>
        <time>2025-01-11T12:38:13Z</time>
      </trkpt>
      <trkpt lat="46.16861" lon="6.55924">
        <ele>1471</ele>
        <time>2025-01-11T12:38:17Z</time>
      </trkpt>
      <trkpt lat="46.16855" lon="6.55909">
        <ele>1470</ele>
        <time>2025-01-11T12:38:19Z</time>
      </trkpt>
      <trkpt lat="46.16848" lon="6.55876">
        <ele>1468</ele>
        <time>2025-01-11T12:38:23Z</time>
      </trkpt>
      <trkpt lat="46.16845" lon="6.55859">
        <ele>1467</ele>
        <time>2025-01-11T12:38:25Z</time>
      </trkpt>
      <trkpt lat="46.16843" lon="6.55843">
        <ele>1466</ele>
        <time>2025-01-11T12:38:27Z</time>
      </trkpt>
      <trkpt lat="46.1684" lon="6.55826">
        <ele>1465</ele>
        <time>2025-01-11T12:38:29Z</time>
      </trkpt>
      <trkpt lat="46.16837" lon="6.55809">
        <ele>1465</ele>
        <time>2025-01-11T12:38:31Z</time>
      </trkpt>
      <trkpt lat="46.16741" lon="6.55585">
        <ele>1452</ele>
        <time>2025-01-11T12:39:01Z</time>
      </trkpt>
      <trkpt lat="46.16735" lon="6.55569">
        <ele>1452</ele>
        <time>2025-01-11T12:39:03Z</time>
      </trkpt>
      <trkpt lat="46.16726" lon="6.55556">
        <ele>1451</ele>
        <time>2025-01-11T12:39:05Z</time>
      </trkpt>
      <trkpt lat="46.16713" lon="6.55525">
        <ele>1449</ele>
        <time>2025-01-11T12:39:09Z</time>
      </trkpt>
      <trkpt lat="46.16691" lon="6.55483">
        <ele>1448</ele>
        <time>2025-01-11T12:39:15Z</time>
      </trkpt>
      <trkpt lat="46.16674" lon="6.55461">
        <ele>1446</ele>
        <time>2025-01-11T12:39:19Z</time>
      </trkpt>
      <trkpt lat="46.16666" lon="6.55451">
        <ele>1445</ele>
        <time>2025-01-11T12:39:21Z</time>
      </trkpt>
      <trkpt lat="46.16658" lon="6.55441">
        <ele>1445</ele>
        <time>2025-01-11T12:39:23Z</time>
      </trkpt>
      <trkpt lat="46.16652" lon="6.5543">
        <ele>1444</ele>
        <time>2025-01-11T12:39:25Z</time>
      </trkpt>
      <trkpt lat="46.16638" lon="6.5541">
        <ele>1442</ele>
        <time>2025-01-11T12:39:29Z</time>
      </trkpt>
      <trkpt lat="46.16625" lon="6.5539">
        <ele>1441</ele>
        <time>2025-01-11T12:39:33Z</time>
      </trkpt>
      <trkpt lat="46.16617" lon="6.55382">
        <ele>1441</ele>
        <time>2025-01-11T12:39:35Z</time>
      </trkpt>
      <trkpt lat="46.1653" lon="6.55293">
        <ele>1436</ele>
        <time>2025-01-11T12:39:55Z</time>
      </trkpt>
      <trkpt lat="46.16521" lon="6.55285">
        <ele>1435</ele>
        <time>2025-01-11T12:39:57Z</time>
      </trkpt>
      <trkpt lat="46.16509" lon="6.55283">
        <ele>1434</ele>
        <time>2025-01-11T12:39:59Z</time>
      </trkpt>
      <trkpt lat="46.16501" lon="6.55273">
        <ele>1433</ele>
        <time>2025-01-11T12:40:01Z</time>
      </trkpt>
      <trkpt lat="46.16494" lon="6.55264">
        <ele>1432</ele>
        <time>2025-01-11T12:40:05Z</time>
      </trkpt>
      <trkpt lat="46.16484" lon="6.5526">
        <ele>1429</ele>
        <time>2025-01-11T12:40:57Z</time>
      </trkpt>
      <trkpt lat="46.16467" lon="6.55254">
        <ele>1429</ele>
        <time>2025-01-11T12:41:01Z</time>
      </trkpt>
      <trkpt lat="46.16451" lon="6.5525">
        <ele>1432</ele>
        <time>2025-01-11T12:41:05Z</time>
      </trkpt>
      <trkpt lat="46.16438" lon="6.55261">
        <ele>1436</ele>
        <time>2025-01-11T12:41:09Z</time>
      </trkpt>
      <trkpt lat="46.16428" lon="6.55259">
        <ele>1434</ele>
        <time>2025-01-11T12:41:15Z</time>
      </trkpt>
      <trkpt lat="46.16423" lon="6.55252">
        <ele>1427</ele>
        <time>2025-01-11T12:50:57Z</time>
      </trkpt>
    </trkseg>
  </trk>
</gpx>